createdAt,value
2023-03-23T15:58:23.547Z,16.73
2023-03-23T16:00:52.691Z,18.98
2023-03-23T16:03:28.189Z,16.02
2023-03-23T16:05:57.535Z,15.07
2023-03-23T16:08:24.672Z,15.98
2023-03-23T16:10:51.779Z,16.58
2023-03-23T16:13:18.966Z,15.75
2023-03-23T16:15:47.050Z,16.52
2023-03-23T16:18:23.425Z,18.35
2023-03-23T16:20:50.911Z,19.67
2023-03-23T16:23:18.344Z,18.40
2023-03-23T16:25:45.776Z,17.70
2023-03-23T16:28:13.995Z,19.95
2023-03-23T16:30:41.732Z,17.98
2023-03-23T16:33:09.193Z,20.10
2023-03-23T16:35:36.773Z,19.42
2023-03-23T16:38:08.295Z,23.25
2023-03-23T16:40:36.762Z,22.08
2023-03-23T16:43:09.021Z,22.63
2023-03-23T16:45:37.111Z,23.40
2023-03-23T16:48:05.447Z,20.17
2023-03-23T16:50:33.008Z,21.25
2023-03-23T16:53:00.738Z,22.60
2023-03-23T16:55:28.026Z,19.88
2023-03-23T16:58:05.289Z,22.67
2023-03-23T17:00:40.845Z,22.95
2023-03-23T17:03:08.308Z,25.40
2023-03-23T17:05:36.773Z,21.75
2023-03-23T17:08:04.047Z,26.15
2023-03-23T17:10:31.932Z,23.40
2023-03-23T17:12:59.386Z,22.67
2023-03-23T17:15:26.800Z,24.75
2023-03-23T17:17:55.136Z,25.15
2023-03-23T17:20:22.934Z,25.75
2023-03-23T17:22:50.199Z,23.15
2023-03-23T17:25:17.395Z,22.67
2023-03-23T17:27:44.486Z,24.90
2023-03-23T17:30:12.355Z,27.00
2023-03-23T17:32:39.505Z,28.33
2023-03-23T17:35:07.246Z,28.58
2023-03-23T17:37:34.907Z,24.38
2023-03-23T17:40:02.191Z,27.40
2023-03-23T17:42:30.348Z,23.58
2023-03-23T17:44:57.557Z,27.67
2023-03-23T17:47:24.684Z,23.90
2023-03-23T17:49:51.844Z,27.75
2023-03-23T17:52:19.003Z,24.40
2023-03-23T17:54:46.118Z,24.60
2023-03-23T17:57:13.243Z,26.23
2023-03-23T17:59:40.662Z,26.10
2023-03-23T18:02:08.446Z,27.75
2023-03-23T18:04:35.934Z,28.45
2023-03-23T18:07:03.080Z,24.63
2023-03-23T18:09:30.166Z,34.70
2023-03-23T18:11:57.264Z,30.98
2023-03-23T18:14:24.446Z,32.25
2023-03-23T18:16:53.080Z,31.90
2023-03-23T18:19:20.446Z,27.23
2023-03-23T18:21:47.595Z,30.77
2023-03-23T18:24:14.757Z,27.48
2023-03-23T18:26:42.795Z,25.17
2023-03-23T18:29:09.954Z,25.65
2023-03-23T18:31:40.058Z,36.45
2023-03-23T18:34:07.376Z,31.13
2023-03-23T18:36:34.865Z,28.02
2023-03-23T18:39:02.114Z,29.27
2023-03-23T18:41:29.394Z,30.40
2023-03-23T18:43:57.728Z,32.00
2023-03-23T18:46:25.362Z,32.03
2023-03-23T18:48:52.543Z,30.05
2023-03-23T18:51:19.789Z,29.45
2023-03-23T18:53:46.868Z,30.90
2023-03-23T18:56:16.027Z,30.67
2023-03-23T18:58:45.920Z,29.55
2023-03-23T19:01:15.029Z,30.52
2023-03-23T19:03:42.559Z,35.13
2023-03-23T19:06:17.546Z,32.42
2023-03-23T19:08:45.280Z,32.03
2023-03-23T19:11:13.101Z,34.30
2023-03-23T19:13:44.464Z,36.40
2023-03-23T19:16:17.845Z,32.15
2023-03-23T19:18:45.005Z,36.53
2023-03-23T19:21:15.639Z,34.67
2023-03-23T19:23:45.225Z,36.78
2023-03-23T19:26:14.964Z,35.22
2023-03-23T19:29:23.113Z,31.17
2023-03-23T19:31:29.678Z,36.42
2023-03-23T19:33:56.988Z,32.17
2023-03-23T19:36:24.655Z,32.38
2023-03-23T19:38:54.316Z,32.38
2023-03-23T19:41:22.307Z,34.45
2023-03-23T19:43:49.420Z,33.50
2023-03-23T19:46:16.782Z,33.67
2023-03-23T19:48:46.342Z,31.77
2023-03-23T19:51:16.585Z,31.63
2023-03-23T19:53:43.728Z,29.15
2023-03-23T19:56:13.027Z,31.55
2023-03-23T19:58:40.144Z,31.50
2023-03-23T20:01:08.555Z,32.50
2023-03-23T20:03:36.525Z,32.13
2023-03-23T20:06:05.673Z,35.53
2023-03-23T20:08:33.274Z,31.98
2023-03-23T20:11:04.566Z,28.23
2023-03-23T20:13:32.021Z,29.95
2023-03-23T20:16:00.627Z,32.35
2023-03-23T20:18:29.686Z,32.33
2023-03-23T20:21:07.433Z,29.38
2023-03-23T20:23:35.647Z,30.02
2023-03-23T20:26:05.790Z,31.55
2023-03-23T20:28:33.414Z,33.78
2023-03-23T20:31:16.983Z,33.72
2023-03-23T20:33:49.191Z,31.25
2023-03-23T20:36:34.743Z,29.77
2023-03-23T20:39:05.167Z,33.97
2023-03-23T20:41:33.028Z,30.88
2023-03-23T20:44:00.161Z,34.88
2023-03-23T20:46:27.713Z,31.95
2023-03-23T20:48:55.064Z,32.70
2023-03-23T20:51:23.763Z,33.95
2023-03-23T20:53:51.001Z,35.70
2023-03-23T20:56:19.644Z,31.73
2023-03-23T20:58:47.615Z,34.08
2023-03-23T21:01:15.045Z,39.40
2023-03-23T21:03:42.373Z,36.00
2023-03-23T21:06:10.772Z,38.58
2023-03-23T21:08:39.696Z,32.17
2023-03-23T21:11:08.959Z,34.65
2023-03-23T21:13:36.406Z,32.72
2023-03-23T21:16:04.335Z,33.33
2023-03-23T21:18:32.031Z,33.25
2023-03-23T21:21:00.369Z,31.75
2023-03-23T21:23:29.930Z,37.13
2023-03-23T21:26:01.959Z,33.63
2023-03-23T21:28:29.037Z,30.92
2023-03-23T21:31:00.350Z,34.05
2023-03-23T21:33:27.456Z,35.33
2023-03-23T21:35:54.657Z,31.15
2023-03-23T21:38:26.184Z,32.03
2023-03-23T21:40:54.158Z,30.20
2023-03-23T21:43:27.467Z,28.90
2023-03-23T21:45:56.732Z,33.67
2023-03-23T21:48:24.965Z,28.23
2023-03-23T21:50:52.433Z,29.33
2023-03-23T21:53:19.710Z,32.10
2023-03-23T21:55:51.253Z,25.40
2023-03-23T21:58:19.516Z,31.92
2023-03-23T22:00:49.958Z,29.98
2023-03-23T22:03:22.620Z,29.38
2023-03-23T22:05:54.649Z,26.33
2023-03-23T22:08:22.560Z,26.15
2023-03-23T22:11:00.359Z,26.77
2023-03-23T22:13:30.305Z,27.65
2023-03-23T22:15:58.168Z,26.95
2023-03-23T22:18:25.409Z,26.90
2023-03-23T22:20:52.537Z,24.75
2023-03-23T22:23:19.758Z,27.73
2023-03-23T22:25:46.840Z,29.23
2023-03-23T22:28:13.958Z,28.00
2023-03-23T22:30:41.201Z,26.02
2023-03-23T22:33:08.477Z,26.00
2023-03-23T22:35:35.929Z,26.95
2023-03-23T22:38:03.304Z,25.67
2023-03-23T22:40:31.474Z,24.42
2023-03-23T22:42:58.725Z,25.63
2023-03-23T22:45:27.324Z,25.60
2023-03-23T22:47:54.818Z,27.15
2023-03-23T22:50:24.079Z,25.83
2023-03-23T22:52:51.255Z,24.02
2023-03-23T22:55:18.428Z,25.35
2023-03-23T22:57:45.980Z,25.20
2023-03-23T23:00:18.684Z,25.10
2023-03-23T23:02:46.101Z,24.83
2023-03-23T23:05:13.728Z,23.77
2023-03-23T23:07:41.022Z,26.10
2023-03-23T23:10:09.008Z,20.67
2023-03-23T23:12:36.200Z,22.42
2023-03-23T23:15:05.850Z,20.85
2023-03-23T23:17:34.684Z,23.40
2023-03-23T23:20:05.508Z,23.45
2023-03-23T23:22:33.187Z,21.30
2023-03-23T23:25:01.061Z,22.35
2023-03-23T23:27:28.196Z,21.90
2023-03-23T23:29:55.326Z,20.85
2023-03-23T23:32:22.654Z,22.75
2023-03-23T23:34:49.818Z,21.48
2023-03-23T23:37:17.044Z,23.73
2023-03-23T23:39:44.240Z,21.25
2023-03-23T23:42:11.482Z,22.13
2023-03-23T23:44:39.090Z,22.40
2023-03-23T23:47:06.550Z,24.33
2023-03-23T23:49:34.297Z,22.55
2023-03-23T23:52:01.562Z,23.17
2023-03-23T23:54:32.033Z,20.35
2023-03-23T23:57:00.163Z,18.52
2023-03-23T23:59:28.853Z,22.92
